createdAt,value
2017-11-11T00:00:29.733Z,5.60
2017-11-11T00:02:57.238Z,6.50
2017-11-11T00:05:24.746Z,6.03
2017-11-11T00:07:52.797Z,5.87
2017-11-11T00:10:20.308Z,5.60
2017-11-11T00:12:47.820Z,5.13
2017-11-11T00:15:15.416Z,5.90
2017-11-11T00:17:42.932Z,6.27
2017-11-11T00:20:10.452Z,7.70
2017-11-11T00:22:38.016Z,8.17
2017-11-11T00:25:05.539Z,6.60
2017-11-11T00:27:33.051Z,7.90
2017-11-11T00:30:00.629Z,6.47
2017-11-11T00:32:28.200Z,7.57
2017-11-11T00:34:55.721Z,8.67
2017-11-11T00:37:23.285Z,6.40
2017-11-11T00:39:50.791Z,6.60
2017-11-11T00:42:18.301Z,7.67
2017-11-11T00:44:45.937Z,7.70
2017-11-11T00:47:13.443Z,7.90
2017-11-11T00:49:40.951Z,6.03
2017-11-11T00:52:08.528Z,7.70
2017-11-11T00:54:36.084Z,7.83
2017-11-11T00:57:03.597Z,7.00
2017-11-11T00:59:31.227Z,6.83
2017-11-11T01:01:58.736Z,7.50
2017-11-11T01:04:27.007Z,7.43
2017-11-11T01:06:54.573Z,7.57
2017-11-11T01:09:22.081Z,7.83
2017-11-11T01:11:49.589Z,7.20
2017-11-11T01:14:17.165Z,6.67
2017-11-11T01:16:44.677Z,8.90
2017-11-11T01:19:12.188Z,8.83
2017-11-11T01:21:39.755Z,8.27
2017-11-11T01:24:07.682Z,8.60
2017-11-11T01:32:01.091Z,7.67
2017-11-11T01:34:28.611Z,8.23
2017-11-11T01:36:56.215Z,7.77
2017-11-11T01:39:23.737Z,8.03
2017-11-11T01:41:51.248Z,7.13
2017-11-11T01:44:18.952Z,7.13
2017-11-11T01:46:46.473Z,7.23
2017-11-11T01:49:13.994Z,7.70
2017-11-11T01:51:41.624Z,8.70
2017-11-11T01:54:09.181Z,8.00
2017-11-11T01:56:36.684Z,8.23
2017-11-11T01:59:04.256Z,7.87
2017-11-11T02:01:31.759Z,8.00
2017-11-11T02:04:01.290Z,7.20
2017-11-11T02:06:28.842Z,7.57
2017-11-11T02:08:57.507Z,8.20
2017-11-11T02:11:25.824Z,8.00
2017-11-11T02:13:53.384Z,8.00
2017-11-11T02:16:20.906Z,7.80
2017-11-11T02:18:48.650Z,9.60
2017-11-11T02:21:16.221Z,8.93
2017-11-11T02:23:44.513Z,8.17
2017-11-11T02:26:12.784Z,8.30
2017-11-11T02:28:41.159Z,7.50
2017-11-11T02:31:08.709Z,8.27
2017-11-11T02:33:36.222Z,7.90
2017-11-11T02:36:03.786Z,8.60
2017-11-11T02:38:31.301Z,7.67
2017-11-11T02:40:58.815Z,8.63
2017-11-11T02:43:26.365Z,8.37
2017-11-11T02:45:53.896Z,7.60
2017-11-11T02:48:21.401Z,7.90
2017-11-11T02:50:48.965Z,7.40
2017-11-11T02:53:16.475Z,8.57
2017-11-11T02:55:43.983Z,9.90
2017-11-11T02:58:11.596Z,7.97
2017-11-11T03:00:39.121Z,7.27
2017-11-11T03:03:06.704Z,6.30
2017-11-11T03:05:34.415Z,7.83
2017-11-11T03:08:02.577Z,8.27
2017-11-11T03:10:30.327Z,7.17
2017-11-11T03:12:57.937Z,8.10
2017-11-11T03:15:25.763Z,7.63
2017-11-11T03:17:53.472Z,8.20
2017-11-11T03:20:21.060Z,8.13
2017-11-11T03:22:48.628Z,8.90
2017-11-11T03:25:16.142Z,9.17
2017-11-11T03:27:43.792Z,7.77
2017-11-11T03:30:11.298Z,10.00
2017-11-11T03:32:38.868Z,9.37
2017-11-11T03:35:06.491Z,9.53
2017-11-11T03:37:34.008Z,10.10
2017-11-11T03:40:01.521Z,7.97
2017-11-11T03:42:29.518Z,10.70
2017-11-11T03:44:57.024Z,10.70
2017-11-11T03:47:24.533Z,8.63
2017-11-11T03:49:52.096Z,10.67
2017-11-11T03:52:20.856Z,8.20
2017-11-11T03:54:48.356Z,8.70
2017-11-11T03:57:15.988Z,8.53
2017-11-11T03:59:43.502Z,9.40
2017-11-11T04:02:11.008Z,10.00
2017-11-11T04:04:39.439Z,9.10
2017-11-11T04:07:06.971Z,10.27
2017-11-11T04:09:34.728Z,9.33
2017-11-11T04:12:02.266Z,11.13
2017-11-11T04:14:29.779Z,8.87
2017-11-11T04:16:57.348Z,9.73
2017-11-11T04:19:24.852Z,7.90
2017-11-11T04:21:52.356Z,8.47
2017-11-11T04:24:20.015Z,10.03
2017-11-11T04:26:47.529Z,9.17
2017-11-11T04:29:15.045Z,7.20
2017-11-11T04:31:42.596Z,6.90
2017-11-11T04:34:11.744Z,6.93
2017-11-11T04:36:39.253Z,5.73
2017-11-11T04:39:06.816Z,8.17
2017-11-11T04:41:34.321Z,7.53
2017-11-11T04:44:01.836Z,7.53
2017-11-11T04:46:29.376Z,7.23
2017-11-11T04:48:56.894Z,8.07
2017-11-11T04:51:24.469Z,7.40
2017-11-11T04:53:52.756Z,7.23
2017-11-11T04:56:20.288Z,7.37
2017-11-11T04:58:47.816Z,8.17
2017-11-11T05:01:15.322Z,6.30
2017-11-11T05:03:42.868Z,5.83
2017-11-11T05:06:10.383Z,6.57
2017-11-11T05:08:37.940Z,6.50
2017-11-11T05:11:05.476Z,7.43
2017-11-11T05:13:32.989Z,6.67
2017-11-11T05:16:00.497Z,6.23
2017-11-11T05:18:28.092Z,5.40
2017-11-11T05:20:55.595Z,7.23
2017-11-11T05:23:23.104Z,8.00
2017-11-11T05:25:50.662Z,6.83
2017-11-11T05:28:18.172Z,5.37
2017-11-11T05:30:45.668Z,5.70
2017-11-11T05:33:13.228Z,5.63
2017-11-11T05:35:41.252Z,6.33
2017-11-11T05:38:08.772Z,5.87
2017-11-11T05:40:36.326Z,6.63
2017-11-11T05:43:03.845Z,5.77
2017-11-11T05:45:31.356Z,6.70
2017-11-11T05:47:59.172Z,6.00
2017-11-11T05:50:26.696Z,6.67
2017-11-11T05:52:54.204Z,6.00
2017-11-11T05:55:21.765Z,6.03
2017-11-11T05:57:49.285Z,5.60
2017-11-11T06:00:16.787Z,6.40
2017-11-11T06:02:44.379Z,4.63
2017-11-11T06:05:11.940Z,5.40
2017-11-11T06:07:39.444Z,5.73
2017-11-11T06:10:07.749Z,4.90
2017-11-11T06:12:35.768Z,5.73
2017-11-11T06:15:03.290Z,5.43
2017-11-11T06:17:30.872Z,5.53
2017-11-11T06:19:58.388Z,6.40
2017-11-11T06:22:25.899Z,7.23
2017-11-11T06:24:53.469Z,6.57
2017-11-11T06:27:20.979Z,5.23
2017-11-11T06:29:48.825Z,5.83
2017-11-11T06:32:16.974Z,6.03
2017-11-11T06:34:44.489Z,7.77
2017-11-11T06:37:11.992Z,5.23
2017-11-11T06:39:39.581Z,5.60
2017-11-11T06:42:07.104Z,5.20
2017-11-11T06:44:34.617Z,4.53
2017-11-11T06:47:02.171Z,4.67
2017-11-11T06:49:29.697Z,3.70
2017-11-11T06:51:57.224Z,4.60
2017-11-11T06:54:24.813Z,4.87
2017-11-11T06:56:52.528Z,4.50
2017-11-11T06:59:20.824Z,5.00
2017-11-11T07:01:48.387Z,4.70
2017-11-11T07:04:27.390Z,7.60
2017-11-11T07:06:54.924Z,7.57
2017-11-11T07:09:22.437Z,5.97
2017-11-11T07:11:49.981Z,4.20
2017-11-11T07:14:17.479Z,5.30
2017-11-11T07:16:45.736Z,4.80
2017-11-11T07:19:13.307Z,5.40
2017-11-11T07:21:40.813Z,4.30
2017-11-11T07:24:08.311Z,3.87
2017-11-11T07:26:35.865Z,4.03
2017-11-11T07:29:03.373Z,4.60
2017-11-11T07:31:30.880Z,3.83
2017-11-11T07:33:58.405Z,3.13
2017-11-11T07:36:25.913Z,3.67
2017-11-11T07:38:53.435Z,3.73
2017-11-11T07:41:20.945Z,3.90
2017-11-11T07:43:48.564Z,4.40
2017-11-11T07:46:16.064Z,4.73
2017-11-11T07:48:44.343Z,4.80
2017-11-11T07:51:12.669Z,4.90
2017-11-11T07:53:40.177Z,4.50
2017-11-11T07:56:07.697Z,4.70
2017-11-11T07:58:35.345Z,4.03
2017-11-11T08:01:02.880Z,4.50
2017-11-11T08:03:30.384Z,3.83
2017-11-11T08:05:58.037Z,4.10
2017-11-11T08:08:25.596Z,4.10
2017-11-11T08:10:53.103Z,4.20
2017-11-11T08:13:20.663Z,4.27
2017-11-11T08:15:48.180Z,4.20
2017-11-11T08:18:15.696Z,3.60
2017-11-11T08:20:43.251Z,3.50
2017-11-11T08:23:10.760Z,3.97
2017-11-11T08:25:38.988Z,3.80
2017-11-11T08:28:06.560Z,5.07
2017-11-11T08:30:34.125Z,3.77
2017-11-11T08:33:02.437Z,4.33
2017-11-11T08:35:29.946Z,4.30
2017-11-11T08:37:57.496Z,4.07
2017-11-11T08:40:25.051Z,3.70
2017-11-11T08:42:52.556Z,3.93
2017-11-11T08:45:20.059Z,3.60
2017-11-11T08:47:47.638Z,4.20
2017-11-11T08:50:15.164Z,3.73
2017-11-11T08:52:42.667Z,4.20
2017-11-11T08:55:10.237Z,3.80
2017-11-11T08:57:37.752Z,3.30
2017-11-11T09:00:05.433Z,3.50
2017-11-11T09:02:33.029Z,3.27
2017-11-11T09:05:00.532Z,3.93
2017-11-11T09:07:28.045Z,3.30
2017-11-11T09:09:55.566Z,4.70
2017-11-11T09:12:23.068Z,3.57
2017-11-11T09:14:50.619Z,3.37
2017-11-11T09:17:18.121Z,3.83
2017-11-11T09:19:46.384Z,3.50
2017-11-11T09:22:14.800Z,3.77
2017-11-11T09:24:42.307Z,4.60
2017-11-11T09:27:09.804Z,5.07
2017-11-11T09:29:38.124Z,5.50
2017-11-11T09:32:05.637Z,4.70
2017-11-11T09:34:33.157Z,4.17
2017-11-11T09:37:00.736Z,4.80
2017-11-11T09:39:28.247Z,4.03
2017-11-11T09:41:55.772Z,4.67
2017-11-11T09:44:24.083Z,4.20
2017-11-11T09:47:11.225Z,4.20
2017-11-11T09:49:38.805Z,6.30
2017-11-11T09:52:06.304Z,3.93
2017-11-11T09:54:33.832Z,4.73
2017-11-11T09:57:01.389Z,3.20
2017-11-11T09:59:28.892Z,5.17
2017-11-11T10:01:56.417Z,4.33
2017-11-11T10:04:23.953Z,3.73
2017-11-11T10:06:51.461Z,4.30
2017-11-11T10:09:19.012Z,7.30
2017-11-11T10:11:47.597Z,5.03
2017-11-11T10:14:15.097Z,4.43
2017-11-11T10:16:42.596Z,4.27
2017-11-11T10:19:10.148Z,4.30
2017-11-11T10:21:38.416Z,4.63
2017-11-11T10:24:05.919Z,6.53
2017-11-11T10:26:33.499Z,5.80
2017-11-11T10:29:01.004Z,4.37
2017-11-11T10:31:29.276Z,4.10
2017-11-11T10:33:57.595Z,3.67
2017-11-11T10:36:25.102Z,4.30
2017-11-11T10:38:52.607Z,4.00
2017-11-11T10:41:20.269Z,4.50
2017-11-11T10:43:47.769Z,4.10
2017-11-11T10:46:15.278Z,4.60
2017-11-11T10:48:42.924Z,4.13
2017-11-11T10:51:11.197Z,4.53
2017-11-11T10:53:39.469Z,4.03
2017-11-11T10:56:07.799Z,4.10
2017-11-11T10:58:35.303Z,4.23
2017-11-11T11:01:02.816Z,4.83
2017-11-11T11:03:30.386Z,5.10
2017-11-11T11:05:57.892Z,4.87
2017-11-11T11:08:25.398Z,3.70
2017-11-11T11:10:52.948Z,3.70
2017-11-11T11:13:20.454Z,4.43
2017-11-11T11:15:47.973Z,5.10
2017-11-11T11:18:15.507Z,6.50
2017-11-11T11:20:43.012Z,4.50
2017-11-11T11:23:10.564Z,5.40
2017-11-11T11:25:38.076Z,6.07
2017-11-11T11:28:05.581Z,5.00
2017-11-11T11:30:33.115Z,7.67
2017-11-11T11:33:00.629Z,3.67
2017-11-11T11:35:28.896Z,6.90
2017-11-11T11:37:57.231Z,7.20
2017-11-11T11:40:24.741Z,6.87
2017-11-11T11:42:52.245Z,4.33
2017-11-11T11:45:19.808Z,3.13
2017-11-11T11:47:47.324Z,3.00
2017-11-11T11:50:14.827Z,3.30
2017-11-11T11:52:42.505Z,2.27
2017-11-11T11:55:09.996Z,2.60
2017-11-11T11:57:38.259Z,3.33
2017-11-11T12:00:05.916Z,3.00
2017-11-11T12:02:33.422Z,2.37
2017-11-11T12:05:00.933Z,2.50
2017-11-11T12:07:28.247Z,2.40
2017-11-11T12:09:55.743Z,3.50
2017-11-11T12:12:23.240Z,3.13
2017-11-11T12:14:50.795Z,2.67
2017-11-11T12:17:18.315Z,3.70
2017-11-11T12:19:45.819Z,3.77
2017-11-11T12:22:13.391Z,2.90
2017-11-11T12:24:40.908Z,3.37
2017-11-11T12:27:08.408Z,2.40
2017-11-11T12:29:35.960Z,1.90
2017-11-11T12:32:03.469Z,2.50
2017-11-11T12:34:30.972Z,3.33
2017-11-11T12:36:58.508Z,3.10
2017-11-11T12:39:26.012Z,2.90
2017-11-11T12:41:53.516Z,3.00
2017-11-11T12:44:21.074Z,2.30
2017-11-11T12:46:48.591Z,2.40
2017-11-11T12:49:16.088Z,2.00
2017-11-11T12:51:43.644Z,2.90
2017-11-11T12:54:11.148Z,2.43
2017-11-11T12:56:38.657Z,3.30
2017-11-11T12:59:06.225Z,2.40
2017-11-11T13:01:33.743Z,2.50
2017-11-11T13:04:01.256Z,2.87
2017-11-11T13:06:29.572Z,2.53
2017-11-11T13:08:57.073Z,3.13
2017-11-11T13:11:24.590Z,2.27
2017-11-11T13:13:52.156Z,2.23
2017-11-11T13:16:19.680Z,2.70
2017-11-11T13:18:47.196Z,2.60
2017-11-11T13:21:15.056Z,2.80
2017-11-11T13:23:43.324Z,2.13
2017-11-11T13:26:11.599Z,2.30
2017-11-11T13:28:39.169Z,2.63
2017-11-11T13:31:06.675Z,2.70
2017-11-11T13:33:34.185Z,2.40
2017-11-11T13:36:01.736Z,2.63
2017-11-11T13:38:29.244Z,2.63
2017-11-11T13:40:56.744Z,2.70
2017-11-11T13:43:24.297Z,2.30
2017-11-11T13:45:51.805Z,2.53
2017-11-11T13:48:19.416Z,1.80
2017-11-11T13:50:46.997Z,2.27
2017-11-11T13:53:14.505Z,1.73
2017-11-11T13:55:42.008Z,2.20
2017-11-11T13:58:09.541Z,1.80
2017-11-11T14:00:37.043Z,1.93
2017-11-11T14:03:04.544Z,1.70
2017-11-11T14:05:32.204Z,2.17
2017-11-11T14:07:59.709Z,1.73
2017-11-11T14:10:27.248Z,1.70
2017-11-11T14:12:54.990Z,2.13
2017-11-11T14:15:22.501Z,2.10
2017-11-11T14:17:50.385Z,2.00
2017-11-11T14:20:17.951Z,2.40
2017-11-11T14:22:45.453Z,1.77
2017-11-11T14:25:12.956Z,2.07
2017-11-11T14:27:40.505Z,1.40
2017-11-11T14:30:08.019Z,2.20
2017-11-11T14:32:35.520Z,1.90
2017-11-11T14:35:03.166Z,2.00
2017-11-11T14:37:30.688Z,2.40
2017-11-11T14:39:58.188Z,1.53
2017-11-11T14:42:25.751Z,2.60
2017-11-11T14:44:53.264Z,2.30
2017-11-11T14:47:20.769Z,2.67
2017-11-11T14:49:48.347Z,2.30
2017-11-11T14:52:15.848Z,2.30
2017-11-11T14:54:43.356Z,2.40
2017-11-11T14:57:10.933Z,2.20
2017-11-11T14:59:38.442Z,1.63
2017-11-11T15:02:05.953Z,2.70
2017-11-11T15:04:33.862Z,2.70
2017-11-11T15:07:01.573Z,1.93
2017-11-11T15:09:29.081Z,2.80
2017-11-11T15:11:56.648Z,1.80
2017-11-11T15:14:24.164Z,2.20
2017-11-11T15:16:51.901Z,2.07
2017-11-11T15:19:19.456Z,2.80
2017-11-11T15:21:46.956Z,2.50
2017-11-11T15:24:14.466Z,3.13
2017-11-11T15:26:42.016Z,1.63
2017-11-11T15:29:09.528Z,3.20
2017-11-11T15:31:37.044Z,1.97
2017-11-11T15:34:04.605Z,2.47
2017-11-11T15:36:32.108Z,2.57
2017-11-11T15:38:59.613Z,2.13
2017-11-11T15:41:27.168Z,2.47
2017-11-11T15:43:54.668Z,2.70
2017-11-11T15:46:22.544Z,2.37
2017-11-11T15:48:50.107Z,2.90
2017-11-11T15:51:18.377Z,2.27
2017-11-11T15:53:45.703Z,2.65
2017-11-11T15:56:13.216Z,1.90
2017-11-11T15:58:40.720Z,2.57
2017-11-11T16:01:08.944Z,2.30
2017-11-11T16:03:36.448Z,2.20
2017-11-11T16:06:03.960Z,3.30
2017-11-11T16:08:32.292Z,1.70
2017-11-11T16:10:59.796Z,3.10
2017-11-11T16:13:27.333Z,5.70
2017-11-11T16:15:56.152Z,2.60
2017-11-11T16:18:23.648Z,4.40
2017-11-11T16:20:51.154Z,2.37
2017-11-11T16:23:18.733Z,2.80
2017-11-11T16:25:46.240Z,2.70
2017-11-11T16:28:14.511Z,2.33
2017-11-11T16:30:42.834Z,2.30
2017-11-11T16:33:10.342Z,2.30
2017-11-11T16:35:37.847Z,2.07
2017-11-11T16:38:06.169Z,1.93
2017-11-11T16:40:33.674Z,1.40
2017-11-11T16:43:01.172Z,1.43
2017-11-11T16:45:28.840Z,2.17
2017-11-11T16:47:56.343Z,2.00
2017-11-11T16:50:23.849Z,1.77
2017-11-11T16:52:51.411Z,1.90
2017-11-11T16:55:19.026Z,1.90
2017-11-11T16:57:47.152Z,2.00
2017-11-11T17:00:15.312Z,1.97
2017-11-11T17:02:43.585Z,1.60
2017-11-11T17:05:11.869Z,1.80
2017-11-11T17:07:39.416Z,1.70
2017-11-11T17:10:08.378Z,1.23
2017-11-11T17:12:35.960Z,1.70
2017-11-11T17:15:04.230Z,2.40
2017-11-11T17:17:32.517Z,2.80
2017-11-11T17:20:00.707Z,1.97
2017-11-11T17:22:28.208Z,2.00
2017-11-11T17:24:55.709Z,2.33
2017-11-11T17:27:23.268Z,2.70
2017-11-11T17:29:50.765Z,3.00
2017-11-11T17:32:18.271Z,2.70
2017-11-11T17:34:45.819Z,2.43
2017-11-11T17:37:13.334Z,2.17
2017-11-11T17:39:40.841Z,2.80
2017-11-11T17:42:08.399Z,2.30
2017-11-11T17:44:35.909Z,2.00
2017-11-11T17:47:03.417Z,2.30
2017-11-11T17:49:30.984Z,2.10
2017-11-11T17:51:58.484Z,2.07
2017-11-11T17:54:25.988Z,2.20
2017-11-11T17:56:53.651Z,2.47
2017-11-11T17:59:21.928Z,1.77
2017-11-11T18:01:49.424Z,2.00
2017-11-11T18:04:16.990Z,2.17
2017-11-11T18:06:44.497Z,2.97
2017-11-11T18:09:11.995Z,2.23
2017-11-11T18:11:39.657Z,2.00
2017-11-11T18:14:07.158Z,3.70
2017-11-11T18:16:34.660Z,3.33
2017-11-11T18:19:02.208Z,2.23
2017-11-11T18:21:30.485Z,2.73
2017-11-11T18:23:58.853Z,2.10
2017-11-11T18:26:26.389Z,2.33
2017-11-11T18:28:53.909Z,2.27
2017-11-11T18:31:21.469Z,2.07
2017-11-11T18:33:48.985Z,2.87
2017-11-11T18:36:16.585Z,1.80
2017-11-11T18:38:44.209Z,2.07
2017-11-11T18:41:11.712Z,2.83
2017-11-11T18:43:39.233Z,2.50
2017-11-11T18:46:06.825Z,3.23
2017-11-11T18:48:34.507Z,1.57
2017-11-11T18:51:02.015Z,2.30
2017-11-11T18:53:29.586Z,1.60
2017-11-11T18:55:57.091Z,2.00
2017-11-11T18:58:24.593Z,2.27
2017-11-11T19:00:52.156Z,2.90
2017-11-11T19:03:19.696Z,2.20
2017-11-11T19:05:47.201Z,2.33
2017-11-11T19:08:14.753Z,1.53
2017-11-11T19:10:42.267Z,1.80
2017-11-11T19:13:09.802Z,2.23
2017-11-11T19:15:37.393Z,2.03
2017-11-11T19:18:04.904Z,3.30
2017-11-11T19:20:32.431Z,3.60
2017-11-11T19:23:00.001Z,5.17
2017-11-11T19:25:27.680Z,3.80
2017-11-11T19:27:55.892Z,6.70
2017-11-11T19:30:23.460Z,2.70
2017-11-11T19:32:50.960Z,1.80
2017-11-11T19:35:18.513Z,2.37
2017-11-11T19:37:46.015Z,1.80
2017-11-11T19:40:13.523Z,3.60
2017-11-11T19:42:41.195Z,1.87
2017-11-11T19:45:08.700Z,1.90
2017-11-11T19:47:36.281Z,2.10
2017-11-11T19:50:03.845Z,1.97
2017-11-11T19:52:31.376Z,1.93
2017-11-11T19:54:59.017Z,1.80
2017-11-11T19:57:26.529Z,2.00
2017-11-11T19:59:54.180Z,1.70
2017-11-11T20:02:21.743Z,2.00
2017-11-11T20:04:49.251Z,1.53
2017-11-11T20:07:16.748Z,1.83
2017-11-11T20:09:44.308Z,1.80
2017-11-11T20:12:11.815Z,1.50
2017-11-11T20:14:39.476Z,1.47
2017-11-11T20:17:07.020Z,1.80
2017-11-11T20:19:34.528Z,1.27
2017-11-11T20:22:02.322Z,1.70
2017-11-11T20:24:29.876Z,1.50
2017-11-11T20:26:57.386Z,1.93
2017-11-11T20:29:24.978Z,1.27
2017-11-11T20:31:53.115Z,1.47
2017-11-11T20:34:20.756Z,1.50
2017-11-11T20:36:48.279Z,1.60
2017-11-11T20:39:15.787Z,1.70
2017-11-11T20:41:43.651Z,1.53
2017-11-11T20:44:11.648Z,1.20
2017-11-11T20:46:39.460Z,1.20
2017-11-11T20:49:06.986Z,1.30
2017-11-11T20:51:34.855Z,1.37
2017-11-11T20:54:02.360Z,1.80
2017-11-11T20:56:30.009Z,1.20
2017-11-11T20:58:57.663Z,1.17
2017-11-11T21:01:25.167Z,1.63
2017-11-11T21:03:52.675Z,1.43
2017-11-11T21:06:22.424Z,1.80
2017-11-11T21:08:50.617Z,1.90
2017-11-11T21:11:18.224Z,2.20
2017-11-11T21:13:45.769Z,2.50
2017-11-11T21:16:13.273Z,3.03
2017-11-11T21:18:40.828Z,2.17
2017-11-11T21:21:08.338Z,2.30
2017-11-11T21:23:35.847Z,1.80
2017-11-11T21:26:03.492Z,1.80
2017-11-11T21:28:31.087Z,2.00
2017-11-11T21:30:58.608Z,2.40
2017-11-11T21:33:26.268Z,2.27
2017-11-11T21:35:53.943Z,2.00
2017-11-11T21:38:21.456Z,1.97
2017-11-11T21:40:48.965Z,2.13
2017-11-11T21:43:16.516Z,2.07
2017-11-11T21:45:44.072Z,1.83
2017-11-11T21:48:11.677Z,1.80
2017-11-11T21:50:56.272Z,1.70
2017-11-11T21:53:23.863Z,1.53
2017-11-11T21:55:51.396Z,1.73
2017-11-11T21:58:18.921Z,1.03
2017-11-11T22:00:46.449Z,0.90
2017-11-11T22:03:14.554Z,2.00
2017-11-11T22:05:42.189Z,1.60
2017-11-11T22:08:09.706Z,1.73
2017-11-11T22:10:37.220Z,2.20
2017-11-11T22:13:04.763Z,2.77
2017-11-11T22:15:32.277Z,3.43
2017-11-11T22:17:59.788Z,3.37
2017-11-11T22:20:27.452Z,3.60
2017-11-11T22:22:54.966Z,3.57
2017-11-11T22:25:22.468Z,3.10
2017-11-11T22:27:50.016Z,4.70
2017-11-11T22:30:17.528Z,4.13
2017-11-11T22:32:45.804Z,4.43
2017-11-11T22:35:14.155Z,4.83
2017-11-11T22:37:41.714Z,5.40
2017-11-11T22:40:09.227Z,4.63
2017-11-11T22:42:36.812Z,4.90
2017-11-11T22:45:04.320Z,4.40
2017-11-11T22:47:31.820Z,4.03
2017-11-11T22:49:59.384Z,5.20
2017-11-11T22:52:26.897Z,4.60
2017-11-11T22:54:54.413Z,3.23
2017-11-11T22:57:22.147Z,2.97
2017-11-11T22:59:49.661Z,2.97
2017-11-11T23:02:17.174Z,2.23
2017-11-11T23:04:44.729Z,3.53
2017-11-11T23:07:12.528Z,3.37
2017-11-11T23:09:40.084Z,3.10
2017-11-11T23:12:07.659Z,2.53
2017-11-11T23:14:35.160Z,3.13
2017-11-11T23:17:02.664Z,3.70
2017-11-11T23:19:30.212Z,3.60
2017-11-11T23:21:57.713Z,3.10
2017-11-11T23:24:25.216Z,3.97
2017-11-11T23:26:52.792Z,3.77
2017-11-11T23:29:20.292Z,4.70
2017-11-11T23:31:47.792Z,4.23
2017-11-11T23:34:15.368Z,4.07
2017-11-11T23:36:42.888Z,6.40
2017-11-11T23:39:10.392Z,5.70
2017-11-11T23:41:38.045Z,6.90
2017-11-11T23:44:06.322Z,6.87
2017-11-11T23:46:33.823Z,6.30
2017-11-11T23:49:02.276Z,5.40
2017-11-11T23:51:29.781Z,4.67
2017-11-11T23:53:57.496Z,5.30
2017-11-11T23:56:25.053Z,5.30
2017-11-11T23:58:52.568Z,7.20
